Time;durP1;ratioP1;P1;durP2;ratioP2;P2;SDS_P1;SDS_P2;PMS_P1;PMS_P2;Temp;Humidity;BMP_temperature;BMP_pressure;BME280_temperature;BME280_humidity;BME280_pressure;Samples;Min_cycle;Max_cycle;Signal;HPM_P1;HPM_P2
2022/01/12 00:00:24;;;;;;;10.40;7.00;;;;;;;0.29;55.81;102373.21;108240;1282;22704;-89
2022/01/12 00:02:57;;;;;;;10.30;6.80;;;;;;;0.29;55.84;102372.15;107644;1284;22725;-87
2022/01/12 00:05:27;;;;;;;10.90;7.90;;;;;;;0.31;55.80;102372.43;107291;1282;22592;-85
2022/01/12 00:07:53;;;;;;;12.50;8.20;;;;;;;0.32;55.59;102365.05;107010;1283;25259;-86
2022/01/12 00:10:20;;;;;;;13.20;7.90;;;;;;;0.30;55.40;102365.45;106348;1286;22712;-89
2022/01/12 00:12:47;;;;;;;8.80;7.00;;;;;;;0.26;55.49;102366.42;105678;1290;22746;-88
2022/01/12 00:15:14;;;;;;;8.90;6.80;;;;;;;0.23;55.66;102366.73;105032;1290;22645;-87
2022/01/12 00:17:42;;;;;;;10.20;7.20;;;;;;;0.24;55.84;102367.34;104940;1289;24300;-84
2022/01/12 00:20:09;;;;;;;11.20;7.90;;;;;;;0.28;55.80;102369.63;104801;1290;22564;-84
2022/01/12 00:22:37;;;;;;;9.40;6.50;;;;;;;0.29;55.67;102372.48;104703;1290;22892;-86
2022/01/12 00:33:17;;;;;;;8.70;6.70;;;;;;;0.01;55.90;102368.23;105430;1291;24350;-88
2022/01/12 00:35:49;;;;;;;11.50;7.30;;;;;;;-0.03;55.95;102367.16;104779;1291;23019;-83
2022/01/12 00:38:18;;;;;;;8.70;6.50;;;;;;;0.00;56.32;102368.03;105571;1287;24111;-90
2022/01/12 00:40:48;;;;;;;9.20;6.30;;;;;;;0.03;56.19;102368.92;106694;1284;22598;-91
2022/01/12 00:43:18;;;;;;;7.80;6.00;;;;;;;0.06;56.31;102367.67;107492;1284;22520;-88
2022/01/12 00:45:46;;;;;;;8.90;6.10;;;;;;;0.06;56.24;102369.27;107455;1284;23396;-90
2022/01/12 00:48:15;;;;;;;10.10;6.10;;;;;;;0.07;56.40;102365.21;107020;1291;22588;-91
2022/01/12 00:50:55;;;;;;;9.80;6.90;;;;;;;0.10;56.61;102360.71;106753;1290;24385;-87
2022/01/12 00:53:30;;;;;;;9.00;6.10;;;;;;;0.12;56.32;102363.77;106541;1290;22561;-87
2022/01/12 00:56:17;;;;;;;8.80;5.70;;;;;;;0.13;56.39;102363.30;105759;1294;23104;-86
2022/01/12 00:59:06;;;;;;;10.20;7.20;;;;;;;-0.11;55.67;102359.85;105964;1296;22957;-87
2022/01/12 01:02:03;;;;;;;9.80;6.30;;;;;;;-0.21;56.36;102364.73;106549;1294;22615;-88
2022/01/12 01:04:42;;;;;;;10.10;6.10;;;;;;;-0.19;56.48;102362.99;106652;1294;22799;-84
2022/01/12 01:07:27;;;;;;;10.40;7.40;;;;;;;-0.28;56.32;102370.70;105969;1293;22641;-87
2022/01/12 01:10:45;;;;;;;10.70;7.00;;;;;;;-0.30;56.67;102373.54;105293;1291;25932;-86
2022/01/12 01:14:10;;;;;;;;;;;;;;;;;;;;;
2022/01/12 01:27:56;;;;;;;10.00;6.70;;;;;;;-0.41;57.06;102367.03;105821;1297;22612;-91
2022/01/12 01:31:07;;;;;;;;;;;;;;;;;;;;;
2022/01/12 01:34:10;;;;;;;12.70;8.60;;;;;;;-0.26;57.45;102371.34;105674;1282;22577;-88
2022/01/12 01:36:50;;;;;;;13.10;8.30;;;;;;;-0.26;56.92;102371.48;105800;1284;22603;-88
2022/01/12 01:39:20;;;;;;;17.50;10.00;;;;;;;-0.47;57.14;102373.38;105284;1282;22574;-83
2022/01/12 01:41:53;;;;;;;17.40;11.90;;;;;;;-0.58;57.48;102370.75;105540;1285;23010;-87
2022/01/12 01:55:26;;;;;;;22.70;13.30;;;;;;;-0.31;58.10;102370.11;104977;1293;22753;-91
2022/01/12 01:57:52;;;;;;;25.30;14.50;;;;;;;-0.36;58.01;102369.65;104722;1294;22750;-90
2022/01/12 02:00:23;;;;;;;20.10;13.70;;;;;;;-0.44;57.99;102362.37;105166;1297;25271;-90
2022/01/12 02:02:57;;;;;;;19.00;12.70;;;;;;;-0.45;58.22;102362.45;105339;1294;22676;-88
2022/01/12 02:05:34;;;;;;;22.00;13.00;;;;;;;-0.41;58.36;102363.89;105827;1294;22796;-89
2022/01/12 02:08:01;;;;;;;23.20;12.90;;;;;;;-0.36;58.60;102360.84;104916;1288;24229;-86
2022/01/12 02:10:31;;;;;;;17.80;12.30;;;;;;;-0.34;58.41;102365.41;104966;1284;22499;-85
2022/01/12 02:12:57;;;;;;;17.60;11.20;;;;;;;-0.33;58.50;102368.79;105717;1284;22606;-84
2022/01/12 02:15:25;;;;;;;20.70;12.60;;;;;;;-0.38;58.06;102367.79;105350;1282;26587;-85
2022/01/12 02:37:15;;;;;;;21.70;12.50;;;;;;;-0.28;58.17;102349.02;104686;1293;25277;-88
2022/01/12 02:39:56;;;;;;;23.10;13.30;;;;;;;-0.29;57.95;102348.83;104925;1297;22666;-86
2022/01/12 02:42:25;;;;;;;19.40;11.80;;;;;;;-0.35;58.14;102353.73;105454;1294;22573;-85
2022/01/12 02:50:44;;;;;;;17.50;10.60;;;;;;;-0.32;58.28;102342.56;107658;1290;22535;-91
2022/01/12 02:53:43;;;;;;;18.20;11.50;;;;;;;-0.28;58.26;102341.92;108152;1287;22610;-86
2022/01/12 02:56:30;;;;;;;22.00;11.90;;;;;;;-0.25;58.01;102338.47;108106;1287;22571;-86
2022/01/12 02:58:59;;;;;;;17.40;10.70;;;;;;;-0.33;57.85;102336.95;107939;1287;22615;-86
2022/01/12 03:04:03;;;;;;;19.40;11.70;;;;;;;-0.29;58.15;102333.94;107293;1284;22563;-85
2022/01/12 03:06:37;;;;;;;20.90;12.30;;;;;;;-0.28;57.98;102334.73;106978;1291;22561;-88
2022/01/12 03:09:06;;;;;;;17.80;12.00;;;;;;;-0.27;58.21;102336.82;106426;1296;23070;-87
2022/01/12 03:11:35;;;;;;;18.70;11.80;;;;;;;-0.22;58.44;102338.81;105668;1297;26746;-86
2022/01/12 03:14:10;;;;;;;19.10;12.10;;;;;;;-0.20;58.45;102341.61;104318;1300;24106;-90
2022/01/12 03:16:37;;;;;;;18.70;12.00;;;;;;;-0.23;58.20;102345.88;104451;1300;22605;-90
2022/01/12 03:19:10;;;;;;;20.60;12.80;;;;;;;-0.34;58.30;102352.10;104436;1300;22687;-88
2022/01/12 03:21:38;;;;;;;22.10;14.00;;;;;;;-0.35;58.60;102356.35;105313;1300;22511;-92
2022/01/12 03:24:27;;;;;;;19.90;13.40;;;;;;;-0.38;58.73;102357.19;105917;1296;22770;-90
2022/01/12 03:26:54;;;;;;;21.90;13.20;;;;;;;-0.38;59.22;102360.47;105736;1291;22556;-88
2022/01/12 03:29:46;;;;;;;22.00;13.80;;;;;;;-0.36;59.33;102359.92;105164;1290;26021;-91
2022/01/12 03:32:25;;;;;;;23.00;14.50;;;;;;;-0.37;59.41;102360.56;106377;1285;25898;-91
2022/01/12 03:35:22;;;;;;;23.00;13.80;;;;;;;-0.37;59.72;102369.05;106693;1284;627138;-83
2022/01/12 03:38:19;;;;;;;20.40;13.80;;;;;;;-0.34;60.00;102368.20;106685;1284;22504;-84
2022/01/12 03:40:41;;;;;;;23.10;13.60;;;;;;;-0.32;60.03;102366.64;107061;1284;22554;-87
2022/01/12 03:43:08;;;;;;;24.10;16.00;;;;;;;-0.30;60.08;102361.41;106868;1284;22543;-88
2022/01/12 03:45:34;;;;;;;23.20;15.00;;;;;;;-0.31;59.70;102359.60;107724;1288;22738;-88
2022/01/12 03:48:01;;;;;;;22.10;15.10;;;;;;;-0.31;59.82;102360.23;107982;1288;22601;-89
2022/01/12 03:50:42;;;;;;;25.40;14.70;;;;;;;-0.29;60.15;102358.48;108081;1288;22738;-90
2022/01/12 03:53:12;;;;;;;24.30;15.60;;;;;;;-0.26;59.95;102351.97;107931;1288;22628;-91
2022/01/12 03:55:43;;;;;;;25.00;15.30;;;;;;;-0.28;59.83;102347.00;107845;1289;22640;-89
2022/01/12 03:58:11;;;;;;;25.30;15.40;;;;;;;-0.31;59.89;102348.69;106900;1290;22748;-89
2022/01/12 04:00:38;;;;;;;25.50;14.20;;;;;;;-0.41;59.82;102351.80;106880;1288;22572;-93
2022/01/12 04:03:08;;;;;;;21.00;14.20;;;;;;;-0.61;59.81;102351.70;106150;1285;25470;-85
2022/01/12 04:08:20;;;;;;;30.90;17.50;;;;;;;-0.82;60.53;102339.71;107785;1284;22496;-87
2022/01/12 04:10:54;;;;;;;30.20;16.90;;;;;;;-0.93;60.72;102341.38;107965;1284;22495;-87
2022/01/12 04:13:23;;;;;;;26.60;16.70;;;;;;;-0.95;61.24;102342.45;105726;1285;23580;-85
2022/01/12 04:15:54;;;;;;;25.80;15.90;;;;;;;-0.93;61.40;102346.20;105761;1285;22534;-85
2022/01/12 04:18:20;;;;;;;29.10;17.90;;;;;;;-0.89;61.53;102344.59;106184;1284;22734;-84
2022/01/12 04:20:49;;;;;;;27.80;17.30;;;;;;;-0.98;61.36;102349.36;105930;1284;22586;-82
2022/01/12 04:23:19;;;;;;;27.30;15.30;;;;;;;-1.09;61.68;102352.08;105358;1285;25474;-82
2022/01/12 04:25:51;;;;;;;26.80;17.80;;;;;;;-1.18;61.99;102351.43;105320;1285;22657;-82
2022/01/12 04:28:21;;;;;;;27.50;16.80;;;;;;;-1.23;62.32;102353.48;105189;1285;22646;-81
2022/01/12 04:30:49;;;;;;;30.30;18.20;;;;;;;-1.34;62.56;102347.86;105012;1284;22585;-84
2022/01/12 04:33:18;;;;;;;25.40;15.90;;;;;;;-1.34;62.74;102350.64;105062;1284;25346;-82
2022/01/12 04:35:48;;;;;;;29.50;17.40;;;;;;;-1.41;63.07;102357.42;105802;1283;23060;-87
2022/01/12 04:38:17;;;;;;;34.50;19.50;;;;;;;-1.40;63.38;102355.89;105585;1284;22557;-89
2022/01/12 04:40:45;;;;;;;28.70;17.50;;;;;;;-1.46;63.48;102352.05;105314;1284;25539;-89
2022/01/12 04:43:12;;;;;;;27.20;17.10;;;;;;;-1.50;63.74;102349.54;106762;1285;22583;-82
2022/01/12 04:45:57;;;;;;;33.50;19.10;;;;;;;-1.56;63.70;102349.07;105746;1284;25339;-84
2022/01/12 04:52:08;;;;;;;35.20;20.10;;;;;;;-1.69;64.37;102354.71;105844;1284;22547;-84
2022/01/12 04:54:34;;;;;;;35.90;21.70;;;;;;;-1.66;64.72;102349.92;105510;1284;22575;-84
2022/01/12 04:57:01;;;;;;;36.40;19.50;;;;;;;-1.58;64.70;102345.84;105296;1285;25261;-85
2022/01/12 04:59:28;;;;;;;37.60;19.90;;;;;;;-1.48;64.92;102344.67;105324;1284;24104;-85
2022/01/12 05:01:59;;;;;;;34.60;19.50;;;;;;;-1.33;65.16;102341.56;105294;1284;25258;-87
2022/01/12 05:07:26;;;;;;;33.30;18.90;;;;;;;-1.05;64.90;102345.41;105041;1290;25520;-85
2022/01/12 05:15:18;;;;;;;30.80;18.30;;;;;;;-0.90;64.35;102356.30;105321;1291;25502;-87
2022/01/12 05:17:45;;;;;;;34.90;19.10;;;;;;;-0.88;64.17;102345.39;104932;1290;22582;-88
2022/01/12 05:20:11;;;;;;;34.80;19.60;;;;;;;-0.83;64.18;102347.77;105357;1291;22557;-88
2022/01/12 05:22:40;;;;;;;37.80;19.50;;;;;;;-0.82;64.16;102347.14;105595;1287;24235;-85
2022/01/12 05:25:11;;;;;;;30.50;19.80;;;;;;;-0.81;64.28;102337.02;105085;1291;24487;-86
2022/01/12 05:30:32;;;;;;;32.00;18.60;;;;;;;-0.67;64.23;102344.02;108090;1282;22575;-91
2022/01/12 05:33:49;;;;;;;32.50;20.10;;;;;;;-0.64;64.02;102342.33;107703;1284;22595;-92
2022/01/12 05:37:17;;;;;;;31.10;18.70;;;;;;;-0.62;63.96;102342.27;108254;1284;22577;-91
2022/01/12 05:40:05;;;;;;;34.30;19.20;;;;;;;-0.59;63.95;102339.00;108228;1284;22538;-90
2022/01/12 05:43:21;;;;;;;33.40;19.50;;;;;;;-0.60;63.81;102336.37;109094;1274;22704;-92
2022/01/12 05:46:57;;;;;;;33.40;18.80;;;;;;;-0.60;63.85;102331.89;108979;1272;22546;31
2022/01/12 05:49:34;;;;;;;31.70;18.70;;;;;;;-0.59;63.61;102332.98;106164;1284;22726;-79
2022/01/12 05:52:03;;;;;;;36.10;19.70;;;;;;;-0.69;63.75;102330.17;105846;1284;23648;-84
2022/01/12 05:54:31;;;;;;;31.70;18.30;;;;;;;-0.65;63.97;102332.73;105221;1284;25271;-86
2022/01/12 06:04:00;;;;;;;31.20;18.70;;;;;;;-0.53;63.78;102334.88;108744;1272;22715;-89
2022/01/12 06:10:58;;;;;;;35.80;19.30;;;;;;;-0.60;63.63;102339.49;107065;1287;23053;-91
2022/01/12 06:13:50;;;;;;;33.20;20.40;;;;;;;-0.78;63.80;102344.00;107225;1293;22692;-84
2022/01/12 06:17:09;;;;;;;;;;;;;;;;;;;;;
2022/01/12 06:19:47;;;;;;;32.90;19.70;;;;;;;-0.96;64.03;102346.74;105228;1294;25600;-86
2022/01/12 06:22:45;;;;;;;35.50;19.70;;;;;;;-0.86;64.37;102347.24;104249;1294;22922;-88
2022/01/12 06:25:15;;;;;;;36.50;20.20;;;;;;;-0.78;64.46;102341.04;104386;1294;22578;-87
2022/01/12 06:28:08;;;;;;;36.20;21.00;;;;;;;-0.70;64.40;102344.85;104012;1294;24247;-88
2022/01/12 06:33:27;;;;;;;41.10;24.10;;;;;;;-0.83;63.97;102347.80;104523;1294;24253;-89
2022/01/12 06:35:54;;;;;;;32.40;19.40;;;;;;;-0.82;64.26;102359.83;104646;1294;25431;-84
2022/01/12 06:38:21;;;;;;;39.50;21.10;;;;;;;-0.94;64.18;102356.84;105501;1294;22579;-88
2022/01/12 06:40:48;;;;;;;37.30;21.90;;;;;;;-1.09;64.22;102359.80;106302;1297;22694;-87
2022/01/12 06:43:16;;;;;;;42.10;21.90;;;;;;;-1.17;64.31;102360.80;106841;1297;22650;-89
2022/01/12 06:45:43;;;;;;;34.50;20.40;;;;;;;-1.29;64.26;102358.45;107144;1297;22617;-86
2022/01/12 06:48:10;;;;;;;30.50;19.40;;;;;;;-1.37;64.25;102360.10;107242;1294;22830;-89
2022/01/12 06:50:37;;;;;;;36.60;21.30;;;;;;;-1.35;64.56;102361.84;107141;1291;22593;-88
2022/01/12 06:53:04;;;;;;;32.70;18.60;;;;;;;-1.29;64.52;102367.76;107439;1290;22839;-86
2022/01/12 06:55:33;;;;;;;40.80;23.70;;;;;;;-1.36;64.38;102367.27;106677;1296;22733;-88
2022/01/12 06:58:00;;;;;;;39.10;22.80;;;;;;;-1.34;64.45;102372.23;106521;1291;25309;-89
2022/01/12 07:00:26;;;;;;;41.20;23.70;;;;;;;-1.36;64.49;102374.15;107171;1291;22704;-89
2022/01/12 07:02:55;;;;;;;40.90;24.80;;;;;;;-1.39;64.27;102373.15;105906;1297;25888;-90
2022/01/12 07:05:28;;;;;;;38.70;22.20;;;;;;;-1.36;64.50;102376.80;105976;1298;22976;-91
2022/01/12 07:07:56;;;;;;;38.90;22.50;;;;;;;-1.34;64.24;102377.44;106470;1297;22592;-90
2022/01/12 07:10:33;;;;;;;41.00;23.40;;;;;;;-1.38;64.20;102376.79;106175;1299;23594;-91
2022/01/12 07:13:11;;;;;;;31.70;18.60;;;;;;;-1.34;64.13;102369.86;106110;1294;23650;-91
2022/01/12 07:16:14;;;;;;;32.60;19.50;;;;;;;-1.38;64.02;102371.64;105601;1294;22744;-91
2022/01/12 07:19:03;;;;;;;33.20;20.90;;;;;;;-1.48;63.60;102374.20;105938;1291;22597;-92
2022/01/12 07:21:33;;;;;;;38.30;22.60;;;;;;;-1.50;63.61;102378.74;106396;1285;23030;-91
2022/01/12 07:24:20;;;;;;;31.00;19.30;;;;;;;-1.51;63.50;102378.52;106821;1284;22705;-92
2022/01/12 07:26:49;;;;;;;24.10;14.90;;;;;;;-1.56;63.37;102382.98;106570;1290;22590;-90
2022/01/12 07:29:20;;;;;;;30.20;17.70;;;;;;;-1.64;63.36;102380.65;107424;1291;23012;-91
2022/01/12 07:32:10;;;;;;;25.10;16.40;;;;;;;-1.61;63.47;102390.77;106646;1290;22704;-90
2022/01/12 07:34:37;;;;;;;25.90;15.60;;;;;;;-1.58;63.26;102391.10;107337;1290;22769;-90
2022/01/12 07:37:13;;;;;;;27.00;15.10;;;;;;;-1.62;62.90;102390.52;107720;1290;22621;-88
2022/01/12 07:39:45;;;;;;;22.50;14.60;;;;;;;-1.58;62.82;102392.98;106867;1290;22566;-90
2022/01/12 07:42:14;;;;;;;25.40;16.10;;;;;;;-1.57;62.62;102390.87;105922;1291;22585;-91
2022/01/12 07:44:43;;;;;;;23.80;14.90;;;;;;;-1.59;62.40;102379.48;105979;1288;23880;-93
2022/01/12 07:47:20;;;;;;;22.20;14.70;;;;;;;-1.57;62.53;102383.20;105641;1286;22644;-89
2022/01/12 07:49:52;;;;;;;23.00;13.80;;;;;;;-1.53;62.41;102383.34;105670;1285;22590;-92
2022/01/12 07:52:22;;;;;;;26.60;15.70;;;;;;;-1.50;62.39;102383.76;106221;1284;25267;-91
2022/01/12 07:54:52;;;;;;;25.50;14.70;;;;;;;-1.41;62.49;102378.46;105812;1290;22747;-88
2022/01/12 07:57:21;;;;;;;25.70;15.60;;;;;;;-1.29;62.66;102377.80;105652;1296;24380;-91
2022/01/12 08:00:10;;;;;;;23.70;13.80;;;;;;;-1.28;62.27;102375.31;106226;1296;23529;-90
2022/01/12 08:02:39;;;;;;;21.20;13.50;;;;;;;-1.24;62.07;102377.98;105789;1297;22695;-90
2022/01/12 08:05:09;;;;;;;22.60;14.20;;;;;;;-1.17;62.05;102378.96;105843;1297;24372;-88
2022/01/12 08:07:49;;;;;;;21.50;11.90;;;;;;;-1.11;61.79;102378.73;105395;1297;22563;-89
2022/01/12 08:10:17;;;;;;;16.80;11.00;;;;;;;-1.10;61.32;102379.48;105722;1297;22605;-90
2022/01/12 08:12:47;;;;;;;21.40;12.70;;;;;;;-1.11;60.79;102377.64;106044;1291;22753;-89
2022/01/12 08:15:19;;;;;;;21.50;13.20;;;;;;;-1.21;60.86;102372.48;106992;1284;24343;-90
2022/01/12 08:18:06;;;;;;;19.00;11.00;;;;;;;-1.21;60.98;102374.52;108069;1285;22858;-89
2022/01/12 08:20:35;;;;;;;20.70;11.40;;;;;;;-1.21;61.03;102373.34;107399;1285;22649;-90
2022/01/12 08:23:06;;;;;;;19.60;9.20;;;;;;;-1.20;60.63;102372.91;107742;1284;23446;-90
2022/01/12 08:25:37;;;;;;;16.50;9.80;;;;;;;-1.24;60.53;102368.79;108503;1284;22575;-90
2022/01/12 08:28:07;;;;;;;16.50;9.70;;;;;;;-1.26;60.52;102370.42;108053;1290;22605;-89
2022/01/12 08:30:37;;;;;;;14.40;9.40;;;;;;;-1.23;60.51;102370.77;107622;1290;22567;-90
2022/01/12 08:33:06;;;;;;;14.50;9.10;;;;;;;-1.21;60.52;102368.70;106954;1290;22738;-89
2022/01/12 08:35:40;;;;;;;22.50;12.50;;;;;;;-1.20;60.24;102365.98;105801;1294;22495;-90
2022/01/12 08:38:08;;;;;;;17.00;9.90;;;;;;;-1.20;60.03;102363.39;105229;1294;25360;-90
2022/01/12 08:40:42;;;;;;;14.80;9.70;;;;;;;-1.17;59.91;102360.79;104926;1293;22589;-90
2022/01/12 08:43:10;;;;;;;14.80;8.30;;;;;;;-1.13;60.00;102360.42;104762;1294;24447;-89
2022/01/12 08:45:39;;;;;;;13.90;8.70;;;;;;;-1.10;59.78;102359.75;104599;1296;23874;-90
2022/01/12 08:48:07;;;;;;;15.70;8.10;;;;;;;-1.06;59.76;102366.44;105066;1300;22569;-90
2022/01/12 08:50:34;;;;;;;10.50;7.40;;;;;;;-1.03;59.85;102371.69;105336;1300;23142;-90
2022/01/12 08:53:03;;;;;;;15.70;9.90;;;;;;;-1.02;59.75;102370.20;106489;1297;23044;-88
2022/01/12 08:55:38;;;;;;;18.30;10.20;;;;;;;-0.97;59.56;102373.12;106286;1300;23182;-90
2022/01/12 08:58:09;;;;;;;12.10;8.50;;;;;;;-0.91;59.71;102362.13;106958;1299;22238;-87
2022/01/12 09:00:36;;;;;;;12.00;7.10;;;;;;;-0.81;59.48;102367.27;107233;1300;22815;-90
2022/01/12 09:03:05;;;;;;;15.00;8.90;;;;;;;-0.91;58.75;102363.64;107314;1293;24032;-89
2022/01/12 09:05:38;;;;;;;12.80;8.70;;;;;;;-0.95;58.85;102368.05;107758;1293;22668;-90
2022/01/12 09:08:20;;;;;;;10.00;6.80;;;;;;;-0.95;58.56;102369.61;107653;1293;22812;-91
2022/01/12 09:10:49;;;;;;;13.60;8.60;;;;;;;-0.89;59.13;102364.33;107681;1292;22527;-90
2022/01/12 09:13:17;;;;;;;11.50;7.50;;;;;;;-0.86;58.72;102362.06;107435;1290;22725;-90
2022/01/12 09:15:45;;;;;;;14.70;8.30;;;;;;;-0.93;58.27;102350.58;107950;1288;22831;-91
2022/01/12 09:18:36;;;;;;;10.00;6.30;;;;;;;-0.88;58.78;102352.80;108104;1288;22990;-89
2022/01/12 09:21:16;;;;;;;12.20;6.70;;;;;;;-0.76;58.50;102342.58;107711;1293;22587;-90
2022/01/12 09:23:45;;;;;;;11.80;7.10;;;;;;;-0.77;58.01;102334.75;107592;1293;22632;-88
2022/01/12 09:26:15;;;;;;;13.40;7.70;;;;;;;-0.77;58.03;102341.25;107240;1299;22567;-90
2022/01/12 09:28:42;;;;;;;11.50;7.90;;;;;;;-0.80;57.62;102343.34;106317;1299;22622;-91
2022/01/12 09:31:12;;;;;;;10.40;6.90;;;;;;;-0.81;57.93;102338.92;106703;1297;22647;-90
2022/01/12 09:33:42;;;;;;;10.40;6.30;;;;;;;-0.78;57.75;102331.66;106563;1297;22694;-89
2022/01/12 09:36:27;;;;;;;10.60;7.10;;;;;;;-0.83;57.49;102331.21;106667;1297;22631;-89
2022/01/12 09:38:58;;;;;;;9.20;6.10;;;;;;;-0.90;57.66;102327.91;106540;1291;22585;-89
2022/01/12 09:41:27;;;;;;;11.50;6.40;;;;;;;-0.89;57.76;102321.77;106446;1290;22594;-89
2022/01/12 09:43:57;;;;;;;9.80;7.10;;;;;;;-0.90;57.49;102322.05;104934;1288;22558;-89
2022/01/12 09:46:26;;;;;;;12.40;7.30;;;;;;;-0.89;57.28;102325.77;104991;1294;24379;-90
2022/01/12 09:49:03;;;;;;;9.70;6.40;;;;;;;-0.90;57.05;102326.37;105302;1294;22568;-89
2022/01/12 09:51:51;;;;;;;10.70;7.30;;;;;;;-0.99;57.01;102326.79;104699;1294;22567;-90
2022/01/12 09:54:19;;;;;;;13.80;8.00;;;;;;;-1.04;56.87;102336.30;104353;1299;23061;-89
2022/01/12 09:56:52;;;;;;;13.90;9.20;;;;;;;-1.04;57.19;102335.28;104121;1299;23538;-90
2022/01/12 09:59:21;;;;;;;14.70;8.30;;;;;;;-0.98;57.33;102336.19;104347;1299;22579;-89
2022/01/12 10:01:50;;;;;;;14.20;8.10;;;;;;;-0.94;57.05;102342.21;104417;1296;25355;-89
2022/01/12 10:04:23;;;;;;;14.40;9.10;;;;;;;-0.88;57.27;102340.70;104308;1294;22633;-90
2022/01/12 10:06:53;;;;;;;15.50;9.10;;;;;;;-0.82;57.30;102330.91;104826;1291;22872;-88
2022/01/12 10:09:48;;;;;;;13.10;8.90;;;;;;;-0.69;57.66;102336.95;105178;1290;24246;-91
2022/01/12 10:12:16;;;;;;;15.50;9.80;;;;;;;-0.56;57.41;102327.63;104933;1288;24336;-88
2022/01/12 10:14:58;;;;;;;20.00;11.20;;;;;;;-0.46;56.92;102328.94;105777;1285;22806;-89
2022/01/12 10:17:37;;;;;;;20.00;11.20;;;;;;;-0.57;56.23;102321.64;104854;1290;23194;-88
2022/01/12 10:20:10;;;;;;;18.20;11.10;;;;;;;-0.69;56.45;102314.64;104744;1291;24232;-89
2022/01/12 10:22:43;;;;;;;23.30;12.50;;;;;;;-0.72;56.82;102307.84;104684;1294;22608;-91
2022/01/12 10:25:21;;;;;;;17.90;11.00;;;;;;;-0.72;56.96;102300.21;104763;1294;25952;-90
2022/01/12 10:27:50;;;;;;;21.80;12.70;;;;;;;-0.69;57.03;102308.41;104705;1294;25273;-90
2022/01/12 10:30:22;;;;;;;20.10;12.50;;;;;;;-0.75;57.32;102301.96;104801;1294;25551;-90
2022/01/12 10:33:10;;;;;;;24.90;11.40;;;;;;;-0.73;57.37;102298.63;105057;1294;22778;-88
2022/01/12 10:35:49;;;;;;;21.10;12.70;;;;;;;-0.60;57.48;102312.48;105717;1288;22560;-89
2022/01/12 10:38:17;;;;;;;17.50;10.60;;;;;;;-0.46;57.70;102311.69;105490;1288;26621;-91
2022/01/12 10:41:07;;;;;;;20.90;12.30;;;;;;;-0.33;57.46;102309.23;105268;1288;24333;-89
2022/01/12 10:43:38;;;;;;;22.20;12.40;;;;;;;-0.39;56.43;102292.55;106431;1291;25373;-89
2022/01/12 10:46:18;;;;;;;19.10;10.90;;;;;;;-0.50;56.86;102295.12;107454;1291;22620;-91
2022/01/12 10:48:55;;;;;;;20.20;11.20;;;;;;;-0.44;56.79;102306.45;107324;1288;22666;-91
2022/01/12 10:51:27;;;;;;;22.10;13.50;;;;;;;-0.57;56.63;102311.48;107785;1288;22612;-89
2022/01/12 10:54:03;;;;;;;24.70;13.60;;;;;;;-0.56;56.52;102311.16;108181;1287;22766;-89
2022/01/12 10:56:32;;;;;;;21.50;11.60;;;;;;;-0.61;56.87;102320.73;107894;1288;22519;-90
2022/01/12 10:58:59;;;;;;;24.80;12.20;;;;;;;-0.52;57.06;102313.02;107825;1288;22615;-88
2022/01/12 11:01:30;;;;;;;22.90;12.80;;;;;;;-0.51;56.96;102303.02;107914;1288;22840;-89
2022/01/12 11:03:57;;;;;;;18.60;11.90;;;;;;;-0.46;57.18;102303.73;107805;1287;22606;-88
2022/01/12 11:06:25;;;;;;;21.10;13.20;;;;;;;-0.24;57.26;102307.39;107718;1288;23818;-90
2022/01/12 11:08:55;;;;;;;21.20;12.60;;;;;;;-0.03;57.21;102304.05;107527;1284;26723;-89
2022/01/12 11:11:26;;;;;;;22.10;14.20;;;;;;;0.20;56.82;102312.16;106216;1284;22579;-87
2022/01/12 11:13:53;;;;;;;23.50;13.60;;;;;;;0.27;56.42;102314.11;106046;1284;23780;-89
2022/01/12 11:16:24;;;;;;;20.10;11.90;;;;;;;0.29;56.39;102314.93;106347;1284;22575;-88
2022/01/12 11:18:54;;;;;;;27.60;14.60;;;;;;;0.33;55.67;102306.71;107041;1285;23435;-89
2022/01/12 11:21:25;;;;;;;26.10;15.90;;;;;;;0.24;55.91;102299.90;106720;1285;25955;-88
2022/01/12 11:23:58;;;;;;;27.00;15.30;;;;;;;0.29;56.25;102297.98;105972;1284;23972;-86
2022/01/12 11:26:29;;;;;;;24.00;15.60;;;;;;;0.32;55.94;102291.03;105854;1291;22511;-88
2022/01/12 11:28:57;;;;;;;26.30;14.60;;;;;;;0.22;55.87;102285.59;106073;1291;22675;-90
2022/01/12 11:31:35;;;;;;;26.60;16.30;;;;;;;0.21;56.23;102291.39;105534;1289;22516;-89
2022/01/12 11:34:01;;;;;;;;;;;;;;;0.22;56.03;102288.91;104594;1296;24220;-89
2022/01/12 11:36:35;;;;;;;27.20;15.80;;;;;;;0.07;55.65;102283.23;104692;1296;24554;-89
2022/01/12 11:39:08;;;;;;;17.60;11.00;;;;;;;-0.07;56.01;102280.79;104656;1296;22523;-89
2022/01/12 11:41:41;;;;;;;31.70;16.80;;;;;;;-0.17;56.24;102280.30;104745;1297;22847;-88
2022/01/12 11:44:18;;;;;;;23.70;16.20;;;;;;;-0.31;56.20;102277.52;104915;1291;24325;-89
2022/01/12 11:46:50;;;;;;;25.70;14.80;;;;;;;-0.34;56.66;102281.79;105705;1291;22502;-90
2022/01/12 11:49:29;;;;;;;28.70;15.30;;;;;;;-0.32;56.74;102291.64;105709;1290;23419;-89
2022/01/12 11:51:59;;;;;;;23.90;14.80;;;;;;;-0.41;56.79;102284.45;105022;1296;22632;-88
2022/01/12 11:54:39;;;;;;;28.20;15.70;;;;;;;-0.44;56.96;102269.77;105565;1296;22835;-88
2022/01/12 11:57:11;;;;;;;26.30;15.10;;;;;;;-0.36;57.29;102267.29;105661;1297;22845;-88
2022/01/12 12:00:02;;;;;;;30.70;17.30;;;;;;;-0.26;57.41;102269.14;105719;1290;22622;-87
2022/01/12 12:02:41;;;;;;;30.80;17.20;;;;;;;-0.17;57.32;102262.65;105414;1291;22646;-88
2022/01/12 12:05:20;;;;;;;27.00;16.00;;;;;;;-0.21;57.46;102251.66;105184;1291;22701;-89
2022/01/12 12:08:22;;;;;;;32.80;18.00;;;;;;;-0.17;57.53;102249.83;105340;1290;22515;-89
2022/01/12 12:10:54;;;;;;;30.50;17.40;;;;;;;-0.18;57.67;102245.63;107005;1287;22725;-88
2022/01/12 12:13:21;;;;;;;23.90;14.30;;;;;;;-0.17;57.77;102250.52;108045;1284;22795;-88
2022/01/12 12:15:51;;;;;;;31.40;17.30;;;;;;;-0.25;57.45;102253.33;107909;1284;22724;-88
2022/01/12 12:18:20;;;;;;;25.90;16.00;;;;;;;-0.33;57.63;102254.50;107497;1287;22557;-87
2022/01/12 12:20:48;;;;;;;33.90;18.20;;;;;;;-0.42;57.42;102255.84;106454;1287;22598;-89
2022/01/12 12:23:22;;;;;;;23.70;12.30;;;;;;;-0.48;57.57;102247.12;107227;1288;24310;-89
2022/01/12 12:25:49;;;;;;;24.50;15.20;;;;;;;-0.55;57.58;102243.08;107642;1287;25362;-89
2022/01/12 12:28:15;;;;;;;34.70;18.30;;;;;;;-0.55;57.79;102245.51;107762;1287;22569;-89
2022/01/12 12:30:48;;;;;;;26.20;16.00;;;;;;;-0.53;58.00;102251.32;107788;1287;22616;-90
2022/01/12 12:33:17;;;;;;;31.80;18.00;;;;;;;-0.56;58.15;102243.52;106388;1290;25292;-89
2022/01/12 12:35:44;;;;;;;33.20;18.00;;;;;;;-0.49;58.52;102238.92;106746;1290;24323;-89
2022/01/12 12:38:14;;;;;;;32.60;18.70;;;;;;;-0.39;58.36;102241.68;106969;1290;23093;-88
2022/01/12 12:40:45;;;;;;;27.80;15.60;;;;;;;-0.42;57.98;102241.27;106899;1290;22714;-88
2022/01/12 12:43:23;;;;;;;27.30;16.90;;;;;;;-0.48;58.05;102235.16;107447;1290;23165;-88
2022/01/12 12:46:02;;;;;;;30.60;18.50;;;;;;;-0.51;58.34;102239.35;107430;1290;22733;-88
2022/01/12 12:48:31;;;;;;;28.70;16.80;;;;;;;-0.49;58.35;102247.23;106811;1290;22614;-89
2022/01/12 12:51:03;;;;;;;27.80;16.50;;;;;;;-0.52;58.51;102248.81;106157;1290;22686;-89
2022/01/12 12:53:34;;;;;;;27.20;16.80;;;;;;;-0.58;58.54;102247.03;105852;1290;22579;-89
2022/01/12 12:56:04;;;;;;;25.90;15.80;;;;;;;-0.59;58.82;102246.25;105862;1287;25359;-88
2022/01/12 12:58:33;;;;;;;30.50;17.70;;;;;;;-0.66;58.79;102243.52;106049;1290;22551;-89
2022/01/12 13:01:09;;;;;;;35.00;19.30;;;;;;;-0.68;59.00;102242.02;105897;1287;22560;-89
2022/01/12 13:03:39;;;;;;;33.80;21.10;;;;;;;-0.68;59.18;102242.01;106169;1284;22711;-89
2022/01/12 13:06:18;;;;;;;33.90;19.30;;;;;;;-0.72;59.19;102239.19;105735;1285;22577;-88
2022/01/12 13:09:13;;;;;;;34.50;19.50;;;;;;;-0.70;59.36;102232.21;105316;1294;25295;-89
2022/01/12 13:11:46;;;;;;;27.30;17.60;;;;;;;-0.67;58.77;102228.95;105419;1294;22603;-89